sensor_id;sensor_type;location;lat;lon;timestamp;P1;durP1;ratioP1;P2;durP2;ratioP2
46080;SDS011;31821;51.880;-0.518;2022-12-07T00:01:15;16.90;;;7.45;;
46080;SDS011;31821;51.880;-0.518;2022-12-07T00:03:43;18.00;;;8.10;;
46080;SDS011;31821;51.880;-0.518;2022-12-07T00:06:11;19.70;;;8.20;;
46080;SDS011;31821;51.880;-0.518;2022-12-07T00:08:38;17.17;;;8.43;;
46080;SDS011;31821;51.880;-0.518;2022-12-07T00:11:08;19.33;;;9.13;;
46080;SDS011;31821;51.880;-0.518;2022-12-07T00:13:35;20.70;;;9.13;;
46080;SDS011;31821;51.880;-0.518;2022-12-07T00:16:05;17.42;;;8.80;;
46080;SDS011;31821;51.880;-0.518;2022-12-07T00:18:33;19.92;;;9.70;;
46080;SDS011;31821;51.880;-0.518;2022-12-07T00:21:03;17.52;;;8.88;;
46080;SDS011;31821;51.880;-0.518;2022-12-07T00:23:30;17.50;;;8.50;;
46080;SDS011;31821;51.880;-0.518;2022-12-07T00:26:02;17.30;;;8.45;;
46080;SDS011;31821;51.880;-0.518;2022-12-07T00:28:28;25.40;;;10.55;;
46080;SDS011;31821;51.880;-0.518;2022-12-07T00:30:59;19.05;;;8.80;;
46080;SDS011;31821;51.880;-0.518;2022-12-07T00:33:29;15.98;;;7.15;;
46080;SDS011;31821;51.880;-0.518;2022-12-07T00:35:55;19.05;;;8.80;;
46080;SDS011;31821;51.880;-0.518;2022-12-07T00:38:22;17.15;;;8.82;;
46080;SDS011;31821;51.880;-0.518;2022-12-07T00:40:55;19.08;;;8.88;;
46080;SDS011;31821;51.880;-0.518;2022-12-07T00:43:21;17.15;;;8.18;;
46080;SDS011;31821;51.880;-0.518;2022-12-07T00:45:47;16.92;;;8.52;;
46080;SDS011;31821;51.880;-0.518;2022-12-07T00:48:12;16.35;;;7.63;;
46080;SDS011;31821;51.880;-0.518;2022-12-07T00:50:38;20.30;;;8.93;;
46080;SDS011;31821;51.880;-0.518;2022-12-07T00:53:03;19.30;;;9.38;;
46080;SDS011;31821;51.880;-0.518;2022-12-07T00:55:32;18.83;;;8.98;;
46080;SDS011;31821;51.880;-0.518;2022-12-07T00:57:58;20.30;;;9.65;;
46080;SDS011;31821;51.880;-0.518;2022-12-07T01:00:23;20.58;;;8.90;;
46080;SDS011;31821;51.880;-0.518;2022-12-07T01:02:49;22.38;;;9.43;;
46080;SDS011;31821;51.880;-0.518;2022-12-07T01:05:14;18.73;;;9.20;;
46080;SDS011;31821;51.880;-0.518;2022-12-07T01:07:40;20.60;;;9.95;;
46080;SDS011;31821;51.880;-0.518;2022-12-07T01:10:06;21.67;;;10.02;;
46080;SDS011;31821;51.880;-0.518;2022-12-07T01:12:32;18.05;;;9.18;;
46080;SDS011;31821;51.880;-0.518;2022-12-07T01:14:57;17.85;;;9.23;;
46080;SDS011;31821;51.880;-0.518;2022-12-07T01:17:23;17.85;;;8.43;;
46080;SDS011;31821;51.880;-0.518;2022-12-07T01:19:48;19.60;;;9.30;;
46080;SDS011;31821;51.880;-0.518;2022-12-07T01:22:13;22.85;;;9.73;;
46080;SDS011;31821;51.880;-0.518;2022-12-07T01:24:39;23.80;;;10.70;;
46080;SDS011;31821;51.880;-0.518;2022-12-07T01:27:05;23.25;;;10.95;;
46080;SDS011;31821;51.880;-0.518;2022-12-07T01:29:30;19.80;;;9.75;;
46080;SDS011;31821;51.880;-0.518;2022-12-07T01:31:56;21.08;;;11.32;;
46080;SDS011;31821;51.880;-0.518;2022-12-07T01:34:21;23.23;;;11.68;;
46080;SDS011;31821;51.880;-0.518;2022-12-07T01:36:47;19.42;;;9.18;;
46080;SDS011;31821;51.880;-0.518;2022-12-07T01:39:12;21.40;;;9.68;;
46080;SDS011;31821;51.880;-0.518;2022-12-07T01:41:38;24.05;;;11.48;;
46080;SDS011;31821;51.880;-0.518;2022-12-07T01:44:13;20.80;;;10.95;;
46080;SDS011;31821;51.880;-0.518;2022-12-07T01:47:00;16.40;;;9.30;;
46080;SDS011;31821;51.880;-0.518;2022-12-07T01:52:20;17.17;;;9.32;;
46080;SDS011;31821;51.880;-0.518;2022-12-07T01:54:57;21.05;;;10.50;;
46080;SDS011;31821;51.880;-0.518;2022-12-07T01:57:24;21.83;;;10.45;;
46080;SDS011;31821;51.880;-0.518;2022-12-07T01:59:51;26.67;;;11.82;;
46080;SDS011;31821;51.880;-0.518;2022-12-07T02:02:27;16.98;;;9.85;;
46080;SDS011;31821;51.880;-0.518;2022-12-07T02:04:57;18.90;;;10.65;;
46080;SDS011;31821;51.880;-0.518;2022-12-07T02:07:24;21.35;;;9.90;;
46080;SDS011;31821;51.880;-0.518;2022-12-07T02:09:51;23.98;;;10.60;;
46080;SDS011;31821;51.880;-0.518;2022-12-07T02:12:17;19.58;;;10.77;;
46080;SDS011;31821;51.880;-0.518;2022-12-07T02:14:43;22.70;;;10.82;;
46080;SDS011;31821;51.880;-0.518;2022-12-07T02:17:12;18.48;;;9.80;;
46080;SDS011;31821;51.880;-0.518;2022-12-07T02:27:46;20.98;;;10.50;;
46080;SDS011;31821;51.880;-0.518;2022-12-07T02:30:15;18.05;;;9.35;;
46080;SDS011;31821;51.880;-0.518;2022-12-07T02:32:53;21.75;;;10.23;;
46080;SDS011;31821;51.880;-0.518;2022-12-07T02:35:21;21.13;;;10.48;;
46080;SDS011;31821;51.880;-0.518;2022-12-07T02:40:36;20.40;;;10.13;;
46080;SDS011;31821;51.880;-0.518;2022-12-07T02:43:11;19.20;;;10.75;;
46080;SDS011;31821;51.880;-0.518;2022-12-07T02:45:41;25.35;;;11.25;;
46080;SDS011;31821;51.880;-0.518;2022-12-07T02:48:10;21.42;;;10.40;;
46080;SDS011;31821;51.880;-0.518;2022-12-07T02:50:38;21.67;;;10.68;;
46080;SDS011;31821;51.880;-0.518;2022-12-07T02:53:04;21.70;;;11.30;;
46080;SDS011;31821;51.880;-0.518;2022-12-07T02:55:39;19.83;;;10.32;;
46080;SDS011;31821;51.880;-0.518;2022-12-07T02:58:24;19.75;;;9.85;;
46080;SDS011;31821;51.880;-0.518;2022-12-07T03:01:06;22.95;;;10.90;;
46080;SDS011;31821;51.880;-0.518;2022-12-07T03:03:42;19.67;;;9.70;;
46080;SDS011;31821;51.880;-0.518;2022-12-07T03:06:20;19.00;;;11.50;;
46080;SDS011;31821;51.880;-0.518;2022-12-07T03:12:19;18.42;;;9.60;;
46080;SDS011;31821;51.880;-0.518;2022-12-07T03:15:03;23.13;;;11.68;;
46080;SDS011;31821;51.880;-0.518;2022-12-07T03:17:34;23.80;;;11.95;;
46080;SDS011;31821;51.880;-0.518;2022-12-07T03:20:05;21.08;;;9.98;;
46080;SDS011;31821;51.880;-0.518;2022-12-07T03:22:33;20.58;;;10.85;;
46080;SDS011;31821;51.880;-0.518;2022-12-07T03:25:04;19.63;;;10.05;;
46080;SDS011;31821;51.880;-0.518;2022-12-07T03:27:34;19.10;;;9.30;;
46080;SDS011;31821;51.880;-0.518;2022-12-07T03:30:06;18.60;;;9.75;;
46080;SDS011;31821;51.880;-0.518;2022-12-07T03:32:43;21.38;;;9.25;;
46080;SDS011;31821;51.880;-0.518;2022-12-07T03:35:21;17.65;;;9.52;;
46080;SDS011;31821;51.880;-0.518;2022-12-07T03:37:53;19.13;;;9.05;;
46080;SDS011;31821;51.880;-0.518;2022-12-07T03:42:51;23.48;;;11.20;;
46080;SDS011;31821;51.880;-0.518;2022-12-07T03:45:19;19.60;;;10.23;;
46080;SDS011;31821;51.880;-0.518;2022-12-07T03:47:54;24.58;;;11.48;;
46080;SDS011;31821;51.880;-0.518;2022-12-07T03:50:25;18.13;;;9.27;;
46080;SDS011;31821;51.880;-0.518;2022-12-07T03:53:21;25.33;;;11.95;;
46080;SDS011;31821;51.880;-0.518;2022-12-07T03:55:52;29.02;;;13.88;;
46080;SDS011;31821;51.880;-0.518;2022-12-07T03:58:20;25.20;;;12.77;;
46080;SDS011;31821;51.880;-0.518;2022-12-07T04:00:48;23.20;;;12.63;;
46080;SDS011;31821;51.880;-0.518;2022-12-07T04:03:14;21.23;;;11.20;;
46080;SDS011;31821;51.880;-0.518;2022-12-07T04:05:40;28.45;;;12.20;;
46080;SDS011;31821;51.880;-0.518;2022-12-07T04:08:06;21.25;;;11.13;;
46080;SDS011;31821;51.880;-0.518;2022-12-07T04:10:32;23.92;;;11.38;;
46080;SDS011;31821;51.880;-0.518;2022-12-07T04:12:57;28.13;;;13.27;;
46080;SDS011;31821;51.880;-0.518;2022-12-07T04:15:23;31.08;;;14.57;;
46080;SDS011;31821;51.880;-0.518;2022-12-07T04:17:48;38.25;;;18.02;;
46080;SDS011;31821;51.880;-0.518;2022-12-07T04:20:14;28.63;;;13.85;;
46080;SDS011;31821;51.880;-0.518;2022-12-07T04:22:39;31.05;;;14.32;;
46080;SDS011;31821;51.880;-0.518;2022-12-07T04:25:05;35.47;;;15.98;;
46080;SDS011;31821;51.880;-0.518;2022-12-07T04:27:31;28.10;;;13.93;;
46080;SDS011;31821;51.880;-0.518;2022-12-07T04:29:56;27.77;;;13.50;;
46080;SDS011;31821;51.880;-0.518;2022-12-07T04:32:22;25.13;;;12.18;;
46080;SDS011;31821;51.880;-0.518;2022-12-07T04:34:48;32.88;;;15.40;;
46080;SDS011;31821;51.880;-0.518;2022-12-07T04:37:14;22.73;;;12.18;;
46080;SDS011;31821;51.880;-0.518;2022-12-07T04:39:40;32.03;;;15.25;;
46080;SDS011;31821;51.880;-0.518;2022-12-07T04:42:05;29.25;;;14.05;;
46080;SDS011;31821;51.880;-0.518;2022-12-07T04:44:31;33.83;;;15.63;;
46080;SDS011;31821;51.880;-0.518;2022-12-07T04:46:57;35.45;;;16.55;;
46080;SDS011;31821;51.880;-0.518;2022-12-07T04:49:23;31.25;;;14.88;;
46080;SDS011;31821;51.880;-0.518;2022-12-07T04:51:49;37.60;;;17.55;;
46080;SDS011;31821;51.880;-0.518;2022-12-07T04:54:16;34.85;;;16.02;;
46080;SDS011;31821;51.880;-0.518;2022-12-07T04:56:41;24.17;;;13.80;;
46080;SDS011;31821;51.880;-0.518;2022-12-07T04:59:07;30.30;;;15.70;;
46080;SDS011;31821;51.880;-0.518;2022-12-07T05:01:35;24.50;;;12.95;;
46080;SDS011;31821;51.880;-0.518;2022-12-07T05:04:00;28.48;;;13.57;;
46080;SDS011;31821;51.880;-0.518;2022-12-07T05:06:26;26.45;;;13.35;;
46080;SDS011;31821;51.880;-0.518;2022-12-07T05:08:52;26.08;;;14.15;;
46080;SDS011;31821;51.880;-0.518;2022-12-07T05:11:17;32.90;;;15.65;;
46080;SDS011;31821;51.880;-0.518;2022-12-07T05:14:02;21.33;;;12.38;;
46080;SDS011;31821;51.880;-0.518;2022-12-07T05:16:30;27.50;;;13.43;;
46080;SDS011;31821;51.880;-0.518;2022-12-07T05:18:55;24.35;;;12.75;;
46080;SDS011;31821;51.880;-0.518;2022-12-07T05:21:21;24.88;;;13.30;;
46080;SDS011;31821;51.880;-0.518;2022-12-07T05:23:47;27.10;;;13.73;;
46080;SDS011;31821;51.880;-0.518;2022-12-07T05:26:12;29.70;;;14.05;;
46080;SDS011;31821;51.880;-0.518;2022-12-07T05:28:38;29.35;;;14.90;;
46080;SDS011;31821;51.880;-0.518;2022-12-07T05:31:03;25.17;;;13.05;;
46080;SDS011;31821;51.880;-0.518;2022-12-07T05:33:29;26.38;;;13.98;;
46080;SDS011;31821;51.880;-0.518;2022-12-07T05:35:54;26.45;;;13.25;;
46080;SDS011;31821;51.880;-0.518;2022-12-07T05:38:20;25.27;;;12.75;;
46080;SDS011;31821;51.880;-0.518;2022-12-07T05:40:46;25.15;;;13.48;;
46080;SDS011;31821;51.880;-0.518;2022-12-07T05:43:11;26.00;;;12.88;;
46080;SDS011;31821;51.880;-0.518;2022-12-07T05:45:37;28.60;;;12.32;;
46080;SDS011;31821;51.880;-0.518;2022-12-07T05:48:02;22.40;;;12.68;;
46080;SDS011;31821;51.880;-0.518;2022-12-07T05:50:28;22.70;;;11.43;;
46080;SDS011;31821;51.880;-0.518;2022-12-07T05:52:54;28.05;;;13.10;;
46080;SDS011;31821;51.880;-0.518;2022-12-07T05:55:19;23.85;;;12.35;;
46080;SDS011;31821;51.880;-0.518;2022-12-07T05:57:45;33.25;;;15.82;;
46080;SDS011;31821;51.880;-0.518;2022-12-07T06:00:31;31.08;;;14.57;;
46080;SDS011;31821;51.880;-0.518;2022-12-07T06:02:57;25.77;;;13.52;;
46080;SDS011;31821;51.880;-0.518;2022-12-07T06:05:22;24.15;;;11.95;;
46080;SDS011;31821;51.880;-0.518;2022-12-07T06:07:48;21.58;;;11.82;;
46080;SDS011;31821;51.880;-0.518;2022-12-07T06:10:13;35.53;;;16.25;;
46080;SDS011;31821;51.880;-0.518;2022-12-07T06:12:39;23.63;;;12.30;;
46080;SDS011;31821;51.880;-0.518;2022-12-07T06:15:07;22.85;;;11.13;;
46080;SDS011;31821;51.880;-0.518;2022-12-07T06:17:34;31.33;;;13.82;;
46080;SDS011;31821;51.880;-0.518;2022-12-07T06:19:59;22.55;;;11.95;;
46080;SDS011;31821;51.880;-0.518;2022-12-07T06:22:27;25.50;;;13.07;;
46080;SDS011;31821;51.880;-0.518;2022-12-07T06:24:52;22.50;;;11.65;;
46080;SDS011;31821;51.880;-0.518;2022-12-07T06:27:18;33.45;;;15.27;;
46080;SDS011;31821;51.880;-0.518;2022-12-07T06:29:43;26.40;;;13.07;;
46080;SDS011;31821;51.880;-0.518;2022-12-07T06:32:09;25.67;;;13.52;;
46080;SDS011;31821;51.880;-0.518;2022-12-07T06:34:34;26.90;;;13.68;;
46080;SDS011;31821;51.880;-0.518;2022-12-07T06:37:00;39.97;;;16.55;;
46080;SDS011;31821;51.880;-0.518;2022-12-07T06:39:26;47.58;;;19.45;;
46080;SDS011;31821;51.880;-0.518;2022-12-07T06:41:53;28.15;;;14.25;;
46080;SDS011;31821;51.880;-0.518;2022-12-07T06:44:19;33.20;;;13.98;;
46080;SDS011;31821;51.880;-0.518;2022-12-07T06:46:45;39.28;;;17.08;;
46080;SDS011;31821;51.880;-0.518;2022-12-07T06:49:11;31.27;;;14.82;;
46080;SDS011;31821;51.880;-0.518;2022-12-07T06:51:37;24.45;;;11.57;;
46080;SDS011;31821;51.880;-0.518;2022-12-07T06:54:09;35.65;;;15.35;;
46080;SDS011;31821;51.880;-0.518;2022-12-07T06:56:36;27.08;;;12.98;;
46080;SDS011;31821;51.880;-0.518;2022-12-07T06:59:02;30.77;;;13.85;;
46080;SDS011;31821;51.880;-0.518;2022-12-07T07:01:28;25.77;;;12.88;;
46080;SDS011;31821;51.880;-0.518;2022-12-07T07:03:54;24.23;;;11.70;;
46080;SDS011;31821;51.880;-0.518;2022-12-07T07:06:19;30.05;;;13.93;;
46080;SDS011;31821;51.880;-0.518;2022-12-07T07:08:45;38.22;;;18.35;;
46080;SDS011;31821;51.880;-0.518;2022-12-07T07:11:11;46.78;;;20.13;;
46080;SDS011;31821;51.880;-0.518;2022-12-07T07:13:36;39.90;;;18.08;;
46080;SDS011;31821;51.880;-0.518;2022-12-07T07:16:02;39.53;;;18.45;;
46080;SDS011;31821;51.880;-0.518;2022-12-07T07:18:28;48.92;;;21.45;;
46080;SDS011;31821;51.880;-0.518;2022-12-07T07:20:54;37.33;;;18.83;;
46080;SDS011;31821;51.880;-0.518;2022-12-07T07:23:20;33.97;;;15.32;;
46080;SDS011;31821;51.880;-0.518;2022-12-07T07:25:46;36.42;;;16.17;;
46080;SDS011;31821;51.880;-0.518;2022-12-07T07:28:13;34.13;;;15.75;;
46080;SDS011;31821;51.880;-0.518;2022-12-07T07:30:38;42.92;;;19.50;;
46080;SDS011;31821;51.880;-0.518;2022-12-07T07:33:04;32.15;;;15.77;;
46080;SDS011;31821;51.880;-0.518;2022-12-07T07:35:30;33.28;;;15.65;;
46080;SDS011;31821;51.880;-0.518;2022-12-07T07:37:58;28.98;;;15.38;;
46080;SDS011;31821;51.880;-0.518;2022-12-07T07:40:23;32.22;;;15.85;;
46080;SDS011;31821;51.880;-0.518;2022-12-07T07:42:50;25.25;;;14.38;;
46080;SDS011;31821;51.880;-0.518;2022-12-07T07:45:17;39.05;;;18.10;;
46080;SDS011;31821;51.880;-0.518;2022-12-07T07:47:52;30.10;;;15.05;;
46080;SDS011;31821;51.880;-0.518;2022-12-07T07:50:17;39.42;;;18.15;;
46080;SDS011;31821;51.880;-0.518;2022-12-07T07:52:44;32.50;;;16.35;;
46080;SDS011;31821;51.880;-0.518;2022-12-07T07:55:09;40.55;;;18.70;;
46080;SDS011;31821;51.880;-0.518;2022-12-07T07:57:35;49.90;;;20.58;;
46080;SDS011;31821;51.880;-0.518;2022-12-07T08:00:20;49.25;;;21.42;;
46080;SDS011;31821;51.880;-0.518;2022-12-07T08:02:46;45.20;;;20.20;;
46080;SDS011;31821;51.880;-0.518;2022-12-07T08:05:12;39.90;;;18.95;;
46080;SDS011;31821;51.880;-0.518;2022-12-07T08:07:38;33.13;;;16.25;;
46080;SDS011;31821;51.880;-0.518;2022-12-07T08:10:05;36.17;;;18.42;;
46080;SDS011;31821;51.880;-0.518;2022-12-07T08:12:35;30.58;;;15.95;;
46080;SDS011;31821;51.880;-0.518;2022-12-07T08:15:01;27.25;;;13.82;;
46080;SDS011;31821;51.880;-0.518;2022-12-07T08:17:26;33.83;;;18.83;;
46080;SDS011;31821;51.880;-0.518;2022-12-07T08:19:52;34.88;;;18.05;;
46080;SDS011;31821;51.880;-0.518;2022-12-07T08:22:17;41.83;;;20.33;;
46080;SDS011;31821;51.880;-0.518;2022-12-07T08:24:44;38.05;;;17.25;;
46080;SDS011;31821;51.880;-0.518;2022-12-07T08:27:09;39.17;;;18.75;;
46080;SDS011;31821;51.880;-0.518;2022-12-07T08:29:35;32.03;;;16.77;;
46080;SDS011;31821;51.880;-0.518;2022-12-07T08:32:01;37.30;;;17.58;;
46080;SDS011;31821;51.880;-0.518;2022-12-07T08:34:26;42.88;;;18.98;;
46080;SDS011;31821;51.880;-0.518;2022-12-07T08:36:52;30.48;;;15.07;;
46080;SDS011;31821;51.880;-0.518;2022-12-07T08:39:17;35.92;;;17.52;;
46080;SDS011;31821;51.880;-0.518;2022-12-07T08:41:42;31.88;;;16.35;;
46080;SDS011;31821;51.880;-0.518;2022-12-07T08:44:08;31.95;;;16.67;;
46080;SDS011;31821;51.880;-0.518;2022-12-07T08:46:37;33.55;;;16.67;;
46080;SDS011;31821;51.880;-0.518;2022-12-07T08:49:12;33.67;;;17.23;;
46080;SDS011;31821;51.880;-0.518;2022-12-07T08:51:39;32.38;;;16.48;;
46080;SDS011;31821;51.880;-0.518;2022-12-07T08:54:07;31.48;;;17.40;;
46080;SDS011;31821;51.880;-0.518;2022-12-07T08:56:36;33.00;;;17.15;;
46080;SDS011;31821;51.880;-0.518;2022-12-07T08:59:03;37.25;;;19.85;;
46080;SDS011;31821;51.880;-0.518;2022-12-07T09:01:30;30.02;;;16.92;;
46080;SDS011;31821;51.880;-0.518;2022-12-07T09:03:55;27.92;;;16.08;;
46080;SDS011;31821;51.880;-0.518;2022-12-07T09:06:21;24.15;;;14.93;;
46080;SDS011;31821;51.880;-0.518;2022-12-07T09:08:47;26.55;;;15.25;;
46080;SDS011;31821;51.880;-0.518;2022-12-07T09:11:16;27.23;;;14.68;;
46080;SDS011;31821;51.880;-0.518;2022-12-07T09:13:41;23.58;;;14.27;;
46080;SDS011;31821;51.880;-0.518;2022-12-07T09:16:10;22.65;;;13.13;;
46080;SDS011;31821;51.880;-0.518;2022-12-07T09:18:35;21.70;;;12.35;;
46080;SDS011;31821;51.880;-0.518;2022-12-07T09:21:01;20.23;;;12.43;;
46080;SDS011;31821;51.880;-0.518;2022-12-07T09:23:27;18.00;;;10.50;;
46080;SDS011;31821;51.880;-0.518;2022-12-07T09:25:52;17.08;;;10.68;;
46080;SDS011;31821;51.880;-0.518;2022-12-07T09:28:18;18.75;;;10.93;;
46080;SDS011;31821;51.880;-0.518;2022-12-07T09:30:46;14.60;;;9.63;;
46080;SDS011;31821;51.880;-0.518;2022-12-07T09:33:13;14.38;;;9.82;;
46080;SDS011;31821;51.880;-0.518;2022-12-07T09:35:43;14.43;;;9.52;;
46080;SDS011;31821;51.880;-0.518;2022-12-07T09:38:10;14.90;;;9.77;;
46080;SDS011;31821;51.880;-0.518;2022-12-07T09:40:35;12.55;;;9.55;;
46080;SDS011;31821;51.880;-0.518;2022-12-07T09:43:01;11.73;;;8.65;;
46080;SDS011;31821;51.880;-0.518;2022-12-07T09:45:27;14.38;;;8.48;;
46080;SDS011;31821;51.880;-0.518;2022-12-07T09:47:56;13.00;;;8.43;;
46080;SDS011;31821;51.880;-0.518;2022-12-07T09:50:23;11.27;;;7.80;;
46080;SDS011;31821;51.880;-0.518;2022-12-07T09:52:52;15.63;;;8.77;;
46080;SDS011;31821;51.880;-0.518;2022-12-07T09:55:21;12.10;;;8.07;;
46080;SDS011;31821;51.880;-0.518;2022-12-07T09:57:50;12.15;;;8.23;;
46080;SDS011;31821;51.880;-0.518;2022-12-07T10:00:17;11.75;;;8.25;;
46080;SDS011;31821;51.880;-0.518;2022-12-07T10:05:30;12.65;;;8.70;;
46080;SDS011;31821;51.880;-0.518;2022-12-07T10:08:00;12.73;;;7.95;;
46080;SDS011;31821;51.880;-0.518;2022-12-07T10:10:35;13.30;;;6.88;;
46080;SDS011;31821;51.880;-0.518;2022-12-07T10:15:46;10.50;;;5.25;;
46080;SDS011;31821;51.880;-0.518;2022-12-07T10:20:46;10.55;;;5.93;;
46080;SDS011;31821;51.880;-0.518;2022-12-07T10:23:14;10.27;;;5.43;;
46080;SDS011;31821;51.880;-0.518;2022-12-07T10:25:42;9.93;;;5.38;;
46080;SDS011;31821;51.880;-0.518;2022-12-07T10:30:33;10.35;;;5.70;;
46080;SDS011;31821;51.880;-0.518;2022-12-07T10:36:17;10.38;;;5.57;;
46080;SDS011;31821;51.880;-0.518;2022-12-07T10:38:49;8.95;;;4.72;;
46080;SDS011;31821;51.880;-0.518;2022-12-07T10:41:17;6.78;;;4.32;;
46080;SDS011;31821;51.880;-0.518;2022-12-07T10:44:02;7.85;;;4.57;;
46080;SDS011;31821;51.880;-0.518;2022-12-07T10:46:49;10.20;;;5.15;;
46080;SDS011;31821;51.880;-0.518;2022-12-07T10:49:34;9.75;;;4.55;;
46080;SDS011;31821;51.880;-0.518;2022-12-07T10:55:07;9.38;;;5.18;;
46080;SDS011;31821;51.880;-0.518;2022-12-07T11:03:34;7.68;;;4.40;;
46080;SDS011;31821;51.880;-0.518;2022-12-07T11:06:13;5.88;;;3.47;;
46080;SDS011;31821;51.880;-0.518;2022-12-07T11:11:27;6.72;;;3.70;;
46080;SDS011;31821;51.880;-0.518;2022-12-07T11:17:26;7.10;;;3.10;;
46080;SDS011;31821;51.880;-0.518;2022-12-07T11:22:40;5.47;;;3.42;;
46080;SDS011;31821;51.880;-0.518;2022-12-07T11:31:05;5.68;;;3.20;;
46080;SDS011;31821;51.880;-0.518;2022-12-07T11:33:44;6.47;;;3.35;;
46080;SDS011;31821;51.880;-0.518;2022-12-07T11:36:33;6.07;;;3.40;;
46080;SDS011;31821;51.880;-0.518;2022-12-07T11:39:09;6.15;;;3.00;;
46080;SDS011;31821;51.880;-0.518;2022-12-07T11:41:46;6.93;;;3.03;;
46080;SDS011;31821;51.880;-0.518;2022-12-07T11:52:13;7.25;;;3.15;;
46080;SDS011;31821;51.880;-0.518;2022-12-07T11:57:41;7.07;;;3.00;;
46080;SDS011;31821;51.880;-0.518;2022-12-07T12:00:14;5.93;;;2.92;;
46080;SDS011;31821;51.880;-0.518;2022-12-07T12:05:32;8.05;;;3.00;;
46080;SDS011;31821;51.880;-0.518;2022-12-07T12:08:11;7.10;;;3.05;;
46080;SDS011;31821;51.880;-0.518;2022-12-07T12:20:18;6.78;;;2.55;;
46080;SDS011;31821;51.880;-0.518;2022-12-07T12:25:38;6.15;;;2.75;;
46080;SDS011;31821;51.880;-0.518;2022-12-07T12:33:47;6.57;;;3.47;;
46080;SDS011;31821;51.880;-0.518;2022-12-07T12:46:46;7.13;;;3.60;;
46080;SDS011;31821;51.880;-0.518;2022-12-07T12:51:45;8.10;;;3.25;;
46080;SDS011;31821;51.880;-0.518;2022-12-07T12:56:51;5.82;;;3.35;;
46080;SDS011;31821;51.880;-0.518;2022-12-07T13:15:49;4.30;;;2.88;;
46080;SDS011;31821;51.880;-0.518;2022-12-07T13:18:37;8.07;;;3.50;;
46080;SDS011;31821;51.880;-0.518;2022-12-07T13:23:52;7.18;;;3.00;;
46080;SDS011;31821;51.880;-0.518;2022-12-07T13:29:14;6.50;;;3.00;;
46080;SDS011;31821;51.880;-0.518;2022-12-07T13:31:55;10.23;;;4.47;;
46080;SDS011;31821;51.880;-0.518;2022-12-07T13:34:35;6.18;;;3.35;;
46080;SDS011;31821;51.880;-0.518;2022-12-07T13:39:47;10.27;;;3.03;;
46080;SDS011;31821;51.880;-0.518;2022-12-07T13:44:52;10.50;;;4.15;;
46080;SDS011;31821;51.880;-0.518;2022-12-07T13:47:34;10.75;;;4.78;;
46080;SDS011;31821;51.880;-0.518;2022-12-07T13:50:23;11.02;;;5.30;;
46080;SDS011;31821;51.880;-0.518;2022-12-07T13:52:54;8.88;;;4.68;;
46080;SDS011;31821;51.880;-0.518;2022-12-07T13:55:24;8.73;;;3.78;;
46080;SDS011;31821;51.880;-0.518;2022-12-07T13:57:52;11.48;;;4.13;;
46080;SDS011;31821;51.880;-0.518;2022-12-07T14:00:22;7.18;;;3.70;;
46080;SDS011;31821;51.880;-0.518;2022-12-07T14:02:55;10.07;;;4.30;;
46080;SDS011;31821;51.880;-0.518;2022-12-07T14:05:27;8.48;;;4.65;;
46080;SDS011;31821;51.880;-0.518;2022-12-07T14:13:39;7.95;;;3.80;;
46080;SDS011;31821;51.880;-0.518;2022-12-07T14:16:30;8.00;;;3.58;;
46080;SDS011;31821;51.880;-0.518;2022-12-07T14:19:02;7.78;;;3.47;;
46080;SDS011;31821;51.880;-0.518;2022-12-07T14:21:30;8.73;;;3.53;;
46080;SDS011;31821;51.880;-0.518;2022-12-07T14:26:36;9.05;;;3.60;;
46080;SDS011;31821;51.880;-0.518;2022-12-07T14:29:21;9.70;;;4.18;;
46080;SDS011;31821;51.880;-0.518;2022-12-07T14:31:55;7.47;;;3.78;;
46080;SDS011;31821;51.880;-0.518;2022-12-07T14:34:35;8.52;;;3.55;;
46080;SDS011;31821;51.880;-0.518;2022-12-07T14:37:06;11.07;;;4.22;;
46080;SDS011;31821;51.880;-0.518;2022-12-07T14:39:34;7.88;;;4.05;;
46080;SDS011;31821;51.880;-0.518;2022-12-07T14:42:00;9.23;;;4.13;;
46080;SDS011;31821;51.880;-0.518;2022-12-07T14:44:26;7.97;;;4.22;;
46080;SDS011;31821;51.880;-0.518;2022-12-07T14:46:55;9.63;;;3.90;;
46080;SDS011;31821;51.880;-0.518;2022-12-07T14:52:31;9.05;;;4.07;;
46080;SDS011;31821;51.880;-0.518;2022-12-07T14:54:56;9.07;;;3.80;;
46080;SDS011;31821;51.880;-0.518;2022-12-07T14:57:22;9.27;;;4.22;;
46080;SDS011;31821;51.880;-0.518;2022-12-07T14:59:48;8.98;;;4.82;;
46080;SDS011;31821;51.880;-0.518;2022-12-07T15:02:14;8.80;;;4.55;;
46080;SDS011;31821;51.880;-0.518;2022-12-07T15:04:40;11.40;;;5.03;;
46080;SDS011;31821;51.880;-0.518;2022-12-07T15:07:09;10.60;;;4.63;;
46080;SDS011;31821;51.880;-0.518;2022-12-07T15:09:48;10.18;;;4.63;;
46080;SDS011;31821;51.880;-0.518;2022-12-07T15:12:17;12.50;;;5.80;;
46080;SDS011;31821;51.880;-0.518;2022-12-07T15:14:44;10.82;;;5.30;;
46080;SDS011;31821;51.880;-0.518;2022-12-07T15:17:13;9.82;;;5.60;;
46080;SDS011;31821;51.880;-0.518;2022-12-07T15:19:41;11.13;;;5.65;;
46080;SDS011;31821;51.880;-0.518;2022-12-07T15:22:09;9.93;;;5.40;;
46080;SDS011;31821;51.880;-0.518;2022-12-07T15:24:37;10.93;;;5.60;;
46080;SDS011;31821;51.880;-0.518;2022-12-07T15:27:04;13.90;;;6.32;;
46080;SDS011;31821;51.880;-0.518;2022-12-07T15:29:30;12.15;;;5.60;;
46080;SDS011;31821;51.880;-0.518;2022-12-07T15:31:56;9.55;;;5.55;;
46080;SDS011;31821;51.880;-0.518;2022-12-07T15:34:23;11.40;;;5.57;;
46080;SDS011;31821;51.880;-0.518;2022-12-07T15:36:50;12.00;;;5.78;;
46080;SDS011;31821;51.880;-0.518;2022-12-07T15:39:16;12.40;;;6.07;;
46080;SDS011;31821;51.880;-0.518;2022-12-07T15:41:41;11.75;;;4.82;;
46080;SDS011;31821;51.880;-0.518;2022-12-07T15:44:10;10.25;;;4.95;;
46080;SDS011;31821;51.880;-0.518;2022-12-07T15:46:55;10.50;;;5.47;;
46080;SDS011;31821;51.880;-0.518;2022-12-07T15:49:21;13.13;;;6.03;;
46080;SDS011;31821;51.880;-0.518;2022-12-07T15:51:46;11.00;;;5.43;;
46080;SDS011;31821;51.880;-0.518;2022-12-07T15:54:13;13.80;;;5.63;;
46080;SDS011;31821;51.880;-0.518;2022-12-07T15:56:44;9.68;;;5.18;;
46080;SDS011;31821;51.880;-0.518;2022-12-07T15:59:10;13.30;;;5.90;;
46080;SDS011;31821;51.880;-0.518;2022-12-07T16:01:35;12.13;;;6.07;;
46080;SDS011;31821;51.880;-0.518;2022-12-07T16:04:01;12.02;;;6.55;;
46080;SDS011;31821;51.880;-0.518;2022-12-07T16:06:27;12.65;;;6.07;;
46080;SDS011;31821;51.880;-0.518;2022-12-07T16:08:53;13.98;;;7.10;;
46080;SDS011;31821;51.880;-0.518;2022-12-07T16:11:19;17.30;;;7.60;;
46080;SDS011;31821;51.880;-0.518;2022-12-07T16:13:45;15.05;;;7.22;;
46080;SDS011;31821;51.880;-0.518;2022-12-07T16:16:12;17.42;;;8.35;;
46080;SDS011;31821;51.880;-0.518;2022-12-07T16:18:39;18.90;;;7.75;;
46080;SDS011;31821;51.880;-0.518;2022-12-07T16:21:06;15.43;;;7.25;;
46080;SDS011;31821;51.880;-0.518;2022-12-07T16:23:34;15.05;;;6.70;;
46080;SDS011;31821;51.880;-0.518;2022-12-07T16:26:04;13.52;;;6.93;;
46080;SDS011;31821;51.880;-0.518;2022-12-07T16:28:35;14.55;;;6.75;;
46080;SDS011;31821;51.880;-0.518;2022-12-07T16:31:05;14.55;;;6.80;;
46080;SDS011;31821;51.880;-0.518;2022-12-07T16:33:36;14.77;;;6.70;;
46080;SDS011;31821;51.880;-0.518;2022-12-07T16:36:03;14.02;;;7.60;;
46080;SDS011;31821;51.880;-0.518;2022-12-07T16:38:30;12.35;;;6.90;;
46080;SDS011;31821;51.880;-0.518;2022-12-07T16:40:56;13.45;;;7.25;;
46080;SDS011;31821;51.880;-0.518;2022-12-07T16:43:22;15.05;;;7.70;;
46080;SDS011;31821;51.880;-0.518;2022-12-07T16:45:47;12.75;;;7.13;;
46080;SDS011;31821;51.880;-0.518;2022-12-07T16:48:16;17.80;;;9.25;;
46080;SDS011;31821;51.880;-0.518;2022-12-07T16:50:42;17.60;;;8.10;;